createdAt,value
2019-03-25T00:00:29.812Z,69.17
2019-03-25T00:01:02.907Z,69.13
2019-03-25T00:01:36.007Z,69.14
2019-03-25T00:02:07.208Z,69.14
2019-03-25T00:02:38.377Z,69.11
2019-03-25T00:03:09.592Z,69.12
2019-03-25T00:03:40.846Z,69.01
2019-03-25T00:04:12.074Z,68.74
2019-03-25T00:04:43.305Z,68.74
2019-03-25T00:05:14.520Z,68.82
2019-03-25T00:05:45.740Z,68.87
2019-03-25T00:06:17.060Z,68.75
2019-03-25T00:06:48.282Z,68.64
2019-03-25T00:07:19.525Z,68.67
2019-03-25T00:07:50.724Z,68.76
2019-03-25T00:08:21.876Z,68.76
2019-03-25T00:09:04.527Z,68.59
2019-03-25T00:09:26.154Z,68.43
2019-03-25T00:09:57.406Z,68.44
2019-03-25T00:10:28.557Z,68.44
2019-03-25T00:10:59.797Z,68.47
2019-03-25T00:11:30.959Z,68.40
2019-03-25T00:12:02.246Z,68.38
2019-03-25T00:12:33.427Z,68.38
2019-03-25T00:13:04.688Z,68.37
2019-03-25T00:13:35.845Z,68.37
2019-03-25T00:14:07.060Z,68.41
2019-03-25T00:14:38.224Z,68.27
2019-03-25T00:15:09.445Z,68.61
2019-03-25T00:15:40.589Z,68.61
2019-03-25T00:16:11.812Z,68.42
2019-03-25T00:16:43.056Z,68.44
2019-03-25T00:17:14.279Z,68.37
2019-03-25T00:17:45.538Z,68.55
2019-03-25T00:18:16.736Z,68.55
2019-03-25T00:18:47.901Z,68.54
2019-03-25T00:19:19.135Z,68.44
2019-03-25T00:19:50.279Z,68.44
2019-03-25T00:20:21.520Z,68.63
2019-03-25T00:20:52.681Z,68.84
2019-03-25T00:21:23.882Z,68.85
2019-03-25T00:21:55.067Z,68.85
2019-03-25T00:22:26.253Z,68.86
2019-03-25T00:22:57.431Z,68.70
2019-03-25T00:23:28.693Z,68.70
2019-03-25T00:23:59.923Z,68.79
2019-03-25T00:24:38.685Z,68.86
2019-03-25T00:25:04.865Z,68.81
2019-03-25T00:25:36.097Z,68.80
2019-03-25T00:26:07.326Z,68.75
2019-03-25T00:26:38.538Z,68.78
2019-03-25T00:27:09.846Z,68.74
2019-03-25T00:27:41.067Z,68.79
2019-03-25T00:28:13.809Z,68.77
2019-03-25T00:28:45.134Z,68.72
2019-03-25T00:29:16.313Z,68.79
2019-03-25T00:29:47.483Z,68.95
2019-03-25T00:30:18.710Z,68.84
2019-03-25T00:30:50.018Z,68.84
2019-03-25T00:31:21.220Z,68.86
2019-03-25T00:31:52.367Z,68.95
2019-03-25T00:32:23.662Z,69.20
2019-03-25T00:32:54.842Z,69.12
2019-03-25T00:33:26.046Z,69.22
2019-03-25T00:33:57.190Z,69.23
2019-03-25T00:34:28.380Z,69.25
2019-03-25T00:34:59.550Z,69.25
2019-03-25T00:35:31.764Z,69.25
2019-03-25T00:36:02.951Z,69.25
2019-03-25T00:36:34.155Z,69.18
2019-03-25T00:37:05.295Z,69.08
2019-03-25T00:37:36.518Z,69.05
2019-03-25T00:38:07.708Z,69.05
2019-03-25T00:38:38.891Z,69.05
2019-03-25T00:39:10.081Z,68.83
2019-03-25T00:39:41.290Z,68.69
2019-03-25T00:40:12.455Z,68.69
2019-03-25T00:40:43.646Z,68.84
2019-03-25T00:41:14.849Z,68.82
2019-03-25T00:41:46.047Z,68.70
2019-03-25T00:42:17.203Z,68.58
2019-03-25T00:42:48.403Z,68.53
2019-03-25T00:43:19.592Z,68.46
2019-03-25T00:43:50.813Z,68.46
2019-03-25T00:44:21.996Z,68.70
2019-03-25T00:44:53.177Z,68.90
2019-03-25T00:45:24.366Z,68.72
2019-03-25T00:45:55.540Z,68.44
2019-03-25T00:46:26.724Z,68.44
2019-03-25T00:46:57.907Z,68.79
2019-03-25T00:47:29.088Z,68.83
2019-03-25T00:48:00.245Z,68.83
2019-03-25T00:48:31.438Z,68.79
2019-03-25T00:49:02.613Z,68.79
2019-03-25T00:49:33.806Z,68.66
2019-03-25T00:50:06.023Z,68.66
2019-03-25T00:50:37.260Z,68.67
2019-03-25T00:51:08.446Z,68.67
2019-03-25T00:51:39.619Z,68.88
2019-03-25T00:52:10.816Z,68.89
2019-03-25T00:52:42.020Z,68.79
2019-03-25T00:53:13.235Z,68.98
2019-03-25T00:53:44.433Z,68.98
2019-03-25T00:54:15.600Z,69.00
2019-03-25T00:54:50.163Z,69.08
2019-03-25T00:55:19.857Z,69.08
2019-03-25T00:55:51.091Z,69.42
2019-03-25T00:56:22.264Z,69.42
2019-03-25T00:56:54.486Z,69.23
2019-03-25T00:57:25.772Z,69.17
2019-03-25T00:57:56.942Z,69.18
2019-03-25T00:58:28.136Z,69.26
2019-03-25T00:58:59.308Z,69.34
2019-03-25T00:59:30.509Z,69.34
2019-03-25T01:00:02.873Z,69.04
2019-03-25T01:00:35.273Z,69.04
2019-03-25T01:01:06.472Z,69.22
2019-03-25T01:01:37.736Z,69.22
2019-03-25T01:02:08.897Z,69.12
2019-03-25T01:02:40.113Z,69.28
2019-03-25T01:03:11.281Z,69.16
2019-03-25T01:03:42.483Z,69.19
2019-03-25T01:04:13.636Z,69.15
2019-03-25T01:04:44.830Z,69.15
2019-03-25T01:05:16.000Z,69.08
2019-03-25T01:05:47.239Z,69.15
2019-03-25T01:06:18.501Z,69.00
2019-03-25T01:06:49.698Z,69.00
2019-03-25T01:07:20.839Z,69.22
2019-03-25T01:07:52.043Z,69.17
2019-03-25T01:08:23.179Z,69.17
2019-03-25T01:08:55.379Z,69.26
2019-03-25T01:09:26.559Z,69.58
2019-03-25T01:09:57.759Z,69.58
2019-03-25T01:10:28.895Z,69.40
2019-03-25T01:11:00.095Z,69.22
2019-03-25T01:11:31.255Z,69.20
2019-03-25T01:12:02.551Z,69.20
2019-03-25T01:12:33.701Z,69.47
2019-03-25T01:13:04.896Z,69.45
2019-03-25T01:13:36.082Z,69.17
2019-03-25T01:14:07.278Z,69.17
2019-03-25T01:14:38.424Z,69.38
2019-03-25T01:15:09.611Z,69.41
2019-03-25T01:15:40.798Z,69.49
2019-03-25T01:16:12.022Z,69.21
2019-03-25T01:16:43.191Z,69.58
2019-03-25T01:17:14.380Z,69.58
2019-03-25T01:17:45.578Z,69.47
2019-03-25T01:18:17.470Z,69.56
2019-03-25T01:18:48.768Z,69.39
2019-03-25T01:19:19.944Z,69.37
2019-03-25T01:19:51.130Z,69.27
2019-03-25T01:20:22.413Z,69.42
2019-03-25T01:20:53.703Z,69.42
2019-03-25T01:21:24.870Z,69.45
2019-03-25T01:21:56.048Z,69.47
2019-03-25T01:22:27.314Z,69.47
2019-03-25T01:22:58.496Z,69.52
2019-03-25T01:23:29.667Z,69.58
2019-03-25T01:24:00.844Z,69.53
2019-03-25T01:24:32.010Z,69.49
2019-03-25T01:25:05.031Z,69.46
2019-03-25T01:25:36.206Z,69.39
2019-03-25T01:26:07.374Z,69.49
2019-03-25T01:26:38.572Z,69.62
2019-03-25T01:27:09.741Z,69.75
2019-03-25T01:27:40.931Z,69.67
2019-03-25T01:28:12.125Z,69.67
2019-03-25T01:28:43.342Z,69.69
2019-03-25T01:29:14.518Z,69.69
2019-03-25T01:29:45.687Z,69.52
2019-03-25T01:30:16.871Z,69.49
2019-03-25T01:30:48.047Z,69.59
2019-03-25T01:31:19.231Z,69.46
2019-03-25T01:31:50.404Z,69.42
2019-03-25T01:32:21.608Z,69.34
2019-03-25T01:32:52.804Z,69.36
2019-03-25T01:33:23.994Z,69.36
2019-03-25T01:33:55.232Z,69.57
2019-03-25T01:34:26.424Z,69.60
2019-03-25T01:34:57.618Z,69.74
2019-03-25T01:35:28.811Z,69.74
2019-03-25T01:36:00.003Z,69.80
2019-03-25T01:36:31.193Z,69.80
2019-03-25T01:37:02.354Z,69.52
2019-03-25T01:37:33.529Z,69.80
2019-03-25T01:38:04.704Z,69.80
2019-03-25T01:38:35.872Z,69.61
2019-03-25T01:39:07.074Z,69.61
2019-03-25T01:39:38.306Z,69.61
2019-03-25T01:40:09.531Z,69.70
2019-03-25T01:40:40.764Z,69.72
2019-03-25T01:41:11.999Z,69.84
2019-03-25T01:41:43.218Z,69.92
2019-03-25T01:42:14.456Z,69.99
2019-03-25T01:42:45.738Z,69.99
2019-03-25T01:43:16.965Z,69.97
2019-03-25T01:43:48.186Z,69.96
2019-03-25T01:44:19.396Z,70.06
2019-03-25T01:44:50.546Z,70.06
2019-03-25T01:45:21.745Z,70.00
2019-03-25T01:45:52.884Z,69.98
2019-03-25T01:46:24.187Z,69.92
2019-03-25T01:46:55.342Z,69.96
2019-03-25T01:47:26.616Z,69.96
2019-03-25T01:47:57.769Z,69.82
2019-03-25T01:48:28.981Z,69.79
2019-03-25T01:49:00.135Z,69.77
2019-03-25T01:49:31.364Z,69.71
2019-03-25T01:50:05.213Z,69.68
2019-03-25T01:50:36.409Z,69.77
2019-03-25T01:51:07.571Z,69.69
2019-03-25T01:51:38.767Z,69.76
2019-03-25T01:52:09.976Z,69.89
2019-03-25T01:52:41.173Z,69.80
2019-03-25T01:53:12.321Z,69.92
2019-03-25T01:53:44.519Z,69.89
2019-03-25T01:54:15.689Z,69.93
2019-03-25T01:54:46.919Z,69.96
2019-03-25T01:55:18.121Z,69.98
2019-03-25T01:55:49.342Z,70.10
2019-03-25T01:56:20.551Z,70.02
2019-03-25T01:56:51.767Z,69.99
2019-03-25T01:57:23.015Z,69.97
2019-03-25T01:57:54.436Z,69.98
2019-03-25T01:58:25.694Z,70.01
2019-03-25T01:58:56.906Z,70.04
2019-03-25T01:59:28.116Z,70.04
2019-03-25T01:59:59.275Z,70.04
2019-03-25T02:00:30.478Z,70.23
2019-03-25T02:01:01.625Z,70.23
2019-03-25T02:01:32.816Z,70.23
2019-03-25T02:02:03.964Z,70.34
2019-03-25T02:02:35.162Z,70.35
2019-03-25T02:03:07.316Z,70.37
2019-03-25T02:03:38.528Z,70.30
2019-03-25T02:04:09.671Z,70.32
2019-03-25T02:04:40.873Z,70.22
2019-03-25T02:05:12.018Z,70.26
2019-03-25T02:05:43.207Z,70.22
2019-03-25T02:06:14.417Z,70.14
2019-03-25T02:06:45.652Z,70.12
2019-03-25T02:07:16.856Z,70.03
2019-03-25T02:07:48.240Z,69.95
2019-03-25T02:08:19.388Z,69.94
2019-03-25T02:08:50.589Z,70.06
2019-03-25T02:09:21.860Z,69.97
2019-03-25T02:09:53.066Z,69.99
2019-03-25T02:10:24.331Z,69.91
2019-03-25T02:10:55.512Z,70.22
2019-03-25T02:11:26.747Z,70.11
2019-03-25T02:11:57.925Z,70.11
2019-03-25T02:12:29.101Z,70.12
2019-03-25T02:13:00.305Z,70.00
2019-03-25T02:13:31.473Z,70.00
2019-03-25T02:14:02.643Z,70.34
2019-03-25T02:14:33.849Z,70.38
2019-03-25T02:15:05.345Z,70.37
2019-03-25T02:15:36.533Z,70.37
2019-03-25T02:16:07.708Z,70.47
2019-03-25T02:16:38.889Z,70.55
2019-03-25T02:17:10.065Z,70.59
2019-03-25T02:17:41.250Z,70.64
2019-03-25T02:18:12.418Z,70.74
2019-03-25T02:18:43.604Z,70.83
2019-03-25T02:19:14.781Z,70.87
2019-03-25T02:19:46.038Z,70.88
2019-03-25T02:20:25.945Z,70.98
2019-03-25T02:20:50.336Z,70.93
2019-03-25T02:21:21.492Z,70.89
2019-03-25T02:21:52.751Z,70.95
2019-03-25T02:22:23.905Z,71.02
2019-03-25T02:22:56.398Z,71.04
2019-03-25T02:23:27.644Z,70.96
2019-03-25T02:23:58.848Z,70.98
2019-03-25T02:24:30.008Z,70.97
2019-03-25T02:25:01.507Z,70.98
2019-03-25T02:25:32.664Z,70.98
2019-03-25T02:26:03.856Z,70.94
2019-03-25T02:26:35.051Z,70.99
2019-03-25T02:27:06.312Z,71.04
2019-03-25T02:27:37.478Z,71.19
2019-03-25T02:28:08.680Z,71.16
2019-03-25T02:28:39.825Z,71.19
2019-03-25T02:29:11.015Z,71.27
2019-03-25T02:29:42.201Z,71.33
2019-03-25T02:30:13.402Z,71.27
2019-03-25T02:30:44.566Z,71.12
2019-03-25T02:31:16.759Z,70.99
2019-03-25T02:31:47.897Z,70.99
2019-03-25T02:32:19.103Z,70.94
2019-03-25T02:32:50.274Z,70.93
2019-03-25T02:33:21.467Z,70.99
2019-03-25T02:33:52.617Z,71.09
2019-03-25T02:34:23.833Z,71.01
2019-03-25T02:34:55.011Z,70.98
2019-03-25T02:35:26.195Z,71.03
2019-03-25T02:35:57.376Z,70.94
2019-03-25T02:36:28.543Z,70.94
2019-03-25T02:36:59.734Z,70.99
2019-03-25T02:37:30.910Z,71.03
2019-03-25T02:38:02.172Z,71.03
2019-03-25T02:38:33.369Z,70.94
2019-03-25T02:39:04.556Z,70.84
2019-03-25T02:39:36.489Z,70.80
2019-03-25T02:40:07.747Z,70.73
2019-03-25T02:40:38.947Z,70.52
2019-03-25T02:41:10.144Z,70.52
2019-03-25T02:41:41.323Z,70.68
2019-03-25T02:42:12.510Z,70.66
2019-03-25T02:42:43.671Z,70.69
2019-03-25T02:43:14.850Z,70.65
2019-03-25T02:43:46.165Z,70.68
2019-03-25T02:44:17.396Z,70.69
2019-03-25T02:44:48.628Z,70.63
2019-03-25T02:45:19.828Z,70.61
2019-03-25T02:45:50.973Z,70.68
2019-03-25T02:46:22.164Z,70.68
2019-03-25T02:46:53.341Z,70.80
2019-03-25T02:47:24.540Z,70.80
2019-03-25T02:47:55.736Z,70.57
2019-03-25T02:48:26.949Z,70.62
2019-03-25T02:48:58.098Z,70.66
2019-03-25T02:49:29.283Z,70.57
2019-03-25T02:50:00.660Z,70.62
2019-03-25T02:50:31.942Z,70.61
2019-03-25T02:51:03.117Z,70.60
2019-03-25T02:51:34.312Z,70.64
2019-03-25T02:52:05.492Z,70.74
2019-03-25T02:52:36.698Z,70.74
2019-03-25T02:53:07.871Z,70.64
2019-03-25T02:53:39.070Z,70.52
2019-03-25T02:54:10.215Z,70.52
2019-03-25T02:54:41.406Z,70.79
2019-03-25T02:55:12.626Z,71.05
2019-03-25T02:55:43.845Z,70.93
2019-03-25T02:56:15.121Z,70.93
2019-03-25T02:56:46.353Z,71.30
2019-03-25T02:57:17.565Z,71.34
2019-03-25T02:57:48.794Z,71.46
2019-03-25T02:58:20.018Z,71.62
2019-03-25T02:58:51.263Z,71.61
2019-03-25T02:59:22.476Z,71.69
2019-03-25T02:59:53.773Z,71.75
2019-03-25T03:00:37.414Z,71.53
2019-03-25T03:01:08.574Z,71.53
2019-03-25T03:01:39.856Z,71.65
2019-03-25T03:02:10.993Z,71.59
2019-03-25T03:02:42.202Z,71.60
2019-03-25T03:03:13.337Z,71.50
2019-03-25T03:03:44.537Z,71.46
2019-03-25T03:04:15.681Z,71.50
2019-03-25T03:04:46.882Z,71.36
2019-03-25T03:05:18.066Z,71.33
2019-03-25T03:05:49.260Z,71.33
2019-03-25T03:06:20.402Z,71.03
2019-03-25T03:06:51.605Z,70.95
2019-03-25T03:07:22.752Z,70.81
2019-03-25T03:07:53.956Z,70.57
2019-03-25T03:08:25.124Z,70.60
2019-03-25T03:08:56.330Z,70.44
2019-03-25T03:09:27.488Z,70.51
2019-03-25T03:09:58.675Z,70.37
2019-03-25T03:10:29.884Z,70.37
2019-03-25T03:11:01.054Z,70.40
2019-03-25T03:11:32.226Z,70.37
2019-03-25T03:12:03.505Z,70.48
2019-03-25T03:12:34.793Z,70.35
2019-03-25T03:13:05.962Z,70.35
2019-03-25T03:13:37.160Z,70.55
2019-03-25T03:14:08.347Z,70.78
2019-03-25T03:14:39.514Z,70.78
2019-03-25T03:15:10.679Z,70.70
2019-03-25T03:15:41.855Z,70.77
2019-03-25T03:16:13.030Z,70.85
2019-03-25T03:16:44.220Z,70.91
2019-03-25T03:17:15.401Z,70.93
2019-03-25T03:17:46.563Z,70.93
2019-03-25T03:18:17.738Z,70.92
2019-03-25T03:18:48.925Z,70.93
2019-03-25T03:19:20.119Z,70.98
2019-03-25T03:19:51.296Z,70.89
2019-03-25T03:20:22.473Z,70.89
2019-03-25T03:20:53.659Z,70.95
2019-03-25T03:21:24.828Z,70.74
2019-03-25T03:21:56.012Z,70.74
2019-03-25T03:22:27.305Z,70.99
2019-03-25T03:22:58.558Z,71.00
2019-03-25T03:23:29.933Z,70.94
2019-03-25T03:24:01.132Z,70.98
2019-03-25T03:24:33.284Z,70.92
2019-03-25T03:25:04.489Z,70.95
2019-03-25T03:25:35.680Z,71.03
2019-03-25T03:26:06.861Z,70.99
2019-03-25T03:26:39.107Z,71.11
2019-03-25T03:27:10.279Z,71.06
2019-03-25T03:27:41.477Z,71.11
2019-03-25T03:28:12.663Z,71.11
2019-03-25T03:28:43.853Z,71.11
2019-03-25T03:29:15.094Z,71.28
2019-03-25T03:29:46.280Z,71.35
2019-03-25T03:30:18.477Z,71.37
2019-03-25T03:30:49.667Z,71.37
2019-03-25T03:31:20.820Z,71.39
2019-03-25T03:31:52.110Z,71.39
2019-03-25T03:32:23.269Z,71.38
2019-03-25T03:32:54.468Z,71.39
2019-03-25T03:33:25.705Z,71.39
2019-03-25T03:33:56.894Z,71.46
2019-03-25T03:34:28.058Z,71.48
2019-03-25T03:34:59.247Z,71.48
2019-03-25T03:35:30.390Z,71.54
2019-03-25T03:36:01.599Z,71.34
2019-03-25T03:36:32.766Z,71.61
2019-03-25T03:37:04.018Z,71.61
2019-03-25T03:37:35.203Z,71.44
2019-03-25T03:38:06.439Z,71.73
2019-03-25T03:38:37.602Z,71.73
2019-03-25T03:39:08.788Z,71.48
2019-03-25T03:39:39.954Z,71.66
2019-03-25T03:40:11.142Z,71.81
2019-03-25T03:40:42.320Z,71.81
2019-03-25T03:41:13.536Z,71.65
2019-03-25T03:41:44.686Z,71.65
2019-03-25T03:42:15.871Z,71.61
2019-03-25T03:42:47.126Z,71.60
2019-03-25T03:43:18.351Z,71.59
2019-03-25T03:43:49.532Z,71.50
2019-03-25T03:44:20.812Z,71.62
2019-03-25T03:44:52.027Z,71.60
2019-03-25T03:45:23.246Z,71.55
2019-03-25T03:45:54.445Z,71.56
2019-03-25T03:46:25.617Z,71.59
2019-03-25T03:46:56.956Z,71.44
2019-03-25T03:47:28.181Z,71.51
2019-03-25T03:47:59.413Z,71.57
2019-03-25T03:48:30.695Z,71.80
2019-03-25T03:49:01.901Z,71.80
2019-03-25T03:49:33.142Z,71.50
2019-03-25T03:50:05.505Z,71.50
2019-03-25T03:50:36.760Z,71.53
2019-03-25T03:51:07.940Z,71.53
2019-03-25T03:51:39.106Z,71.72
2019-03-25T03:52:10.296Z,71.65
2019-03-25T03:52:41.474Z,71.66
2019-03-25T03:53:12.768Z,71.68
2019-03-25T03:53:43.927Z,71.69
2019-03-25T03:54:15.138Z,71.76
2019-03-25T03:54:46.395Z,71.72
2019-03-25T03:55:17.592Z,71.73
2019-03-25T03:55:48.854Z,71.80
2019-03-25T03:56:20.050Z,71.82
2019-03-25T03:56:52.204Z,71.75
2019-03-25T03:57:23.413Z,71.86
2019-03-25T03:57:54.884Z,71.75
2019-03-25T03:58:26.097Z,71.75
2019-03-25T03:58:57.331Z,71.92
2019-03-25T03:59:28.527Z,71.92
2019-03-25T04:00:00.421Z,71.95
2019-03-25T04:00:32.779Z,71.89
2019-03-25T04:01:04.948Z,71.87
2019-03-25T04:01:36.167Z,71.83
2019-03-25T04:02:07.340Z,71.83
2019-03-25T04:02:38.527Z,71.89
2019-03-25T04:03:09.709Z,71.97
2019-03-25T04:03:40.977Z,71.91
2019-03-25T04:04:12.127Z,71.90
2019-03-25T04:04:43.347Z,71.86
2019-03-25T04:05:14.498Z,71.90
2019-03-25T04:05:45.688Z,71.83
2019-03-25T04:06:16.881Z,71.89
2019-03-25T04:06:48.103Z,71.84
2019-03-25T04:07:19.256Z,71.84
2019-03-25T04:07:50.449Z,71.88
2019-03-25T04:08:21.594Z,71.91
2019-03-25T04:08:52.790Z,71.90
2019-03-25T04:09:23.953Z,71.90
2019-03-25T04:09:55.145Z,71.85
2019-03-25T04:10:26.291Z,71.85
2019-03-25T04:10:57.468Z,71.95
2019-03-25T04:11:28.640Z,72.04
2019-03-25T04:11:59.784Z,72.03
2019-03-25T04:12:30.963Z,71.97
2019-03-25T04:13:02.209Z,71.86
2019-03-25T04:13:33.361Z,71.84
2019-03-25T04:14:04.614Z,71.89
2019-03-25T04:14:36.911Z,72.05
2019-03-25T04:15:12.042Z,72.04
2019-03-25T04:15:44.204Z,71.99
2019-03-25T04:16:15.394Z,72.00
2019-03-25T04:16:46.554Z,72.08
2019-03-25T04:17:17.697Z,72.07
2019-03-25T04:17:48.898Z,72.12
2019-03-25T04:18:20.061Z,72.04
2019-03-25T04:18:51.258Z,72.03
2019-03-25T04:19:22.442Z,71.96
2019-03-25T04:19:53.759Z,71.92
2019-03-25T04:20:24.915Z,71.75
2019-03-25T04:20:56.094Z,71.85
2019-03-25T04:21:28.311Z,71.76
2019-03-25T04:21:59.611Z,71.78
2019-03-25T04:22:30.765Z,71.69
2019-03-25T04:23:01.986Z,71.56
2019-03-25T04:23:33.129Z,71.66
2019-03-25T04:24:04.338Z,71.61
2019-03-25T04:24:35.509Z,71.57
2019-03-25T04:25:06.729Z,71.57
2019-03-25T04:25:37.980Z,71.78
2019-03-25T04:26:09.172Z,71.70
2019-03-25T04:26:40.373Z,71.81
2019-03-25T04:27:12.630Z,71.74
2019-03-25T04:27:43.824Z,71.75
2019-03-25T04:28:15.005Z,71.79
2019-03-25T04:28:46.195Z,71.81
2019-03-25T04:29:17.408Z,71.81
2019-03-25T04:29:48.571Z,71.75
2019-03-25T04:30:19.734Z,71.76
2019-03-25T04:30:50.928Z,71.75
2019-03-25T04:31:22.101Z,71.72
2019-03-25T04:31:53.278Z,71.79
2019-03-25T04:32:24.440Z,71.71
2019-03-25T04:32:55.740Z,71.64
2019-03-25T04:33:26.912Z,71.64
2019-03-25T04:33:58.076Z,71.72
2019-03-25T04:34:29.260Z,71.68
2019-03-25T04:35:00.520Z,71.69
2019-03-25T04:35:31.709Z,71.68
2019-03-25T04:36:03.008Z,71.78
2019-03-25T04:36:34.183Z,71.78
2019-03-25T04:37:05.359Z,71.61
2019-03-25T04:37:36.533Z,71.55
2019-03-25T04:38:07.816Z,71.49
2019-03-25T04:38:39.015Z,71.51
2019-03-25T04:39:10.178Z,71.51
2019-03-25T04:39:41.356Z,71.55
2019-03-25T04:40:12.631Z,71.53
2019-03-25T04:40:43.814Z,71.64
2019-03-25T04:41:15.002Z,71.65
2019-03-25T04:41:46.281Z,71.62
2019-03-25T04:42:17.447Z,71.59
2019-03-25T04:42:48.663Z,71.57
2019-03-25T04:43:19.882Z,71.56
2019-03-25T04:43:51.032Z,71.41
2019-03-25T04:44:22.257Z,71.43
2019-03-25T04:44:53.593Z,71.45
2019-03-25T04:45:24.859Z,71.80
2019-03-25T04:45:56.111Z,71.80
2019-03-25T04:46:27.325Z,71.63
2019-03-25T04:46:58.527Z,71.59
2019-03-25T04:47:29.676Z,71.56
2019-03-25T04:48:00.885Z,71.29
2019-03-25T04:48:32.041Z,71.29
2019-03-25T04:49:03.263Z,71.34
2019-03-25T04:49:34.411Z,71.31
2019-03-25T04:50:05.644Z,71.30
2019-03-25T04:50:36.856Z,71.36
2019-03-25T04:51:08.063Z,71.28
2019-03-25T04:51:39.211Z,71.20
2019-03-25T04:52:10.411Z,70.97
2019-03-25T04:52:41.556Z,70.97
2019-03-25T04:53:12.760Z,71.11
2019-03-25T04:53:43.909Z,70.98
2019-03-25T04:54:15.217Z,70.80
2019-03-25T04:54:46.384Z,70.80
2019-03-25T04:55:17.600Z,70.88
2019-03-25T04:55:48.760Z,70.84
2019-03-25T04:56:20.068Z,70.55
2019-03-25T04:56:51.218Z,70.55
2019-03-25T04:57:22.492Z,70.66
2019-03-25T04:57:53.738Z,70.66
2019-03-25T04:58:24.927Z,70.69
2019-03-25T04:58:56.110Z,70.75
2019-03-25T04:59:27.318Z,70.69
2019-03-25T04:59:58.507Z,70.70
2019-03-25T05:00:33.200Z,70.67
2019-03-25T05:01:04.367Z,70.58
2019-03-25T05:01:35.571Z,70.52
2019-03-25T05:02:06.753Z,70.80
2019-03-25T05:02:37.961Z,70.80
2019-03-25T05:03:09.127Z,70.30
2019-03-25T05:03:40.330Z,70.30
2019-03-25T05:04:11.495Z,70.57
2019-03-25T05:04:42.697Z,70.46
2019-03-25T05:05:13.841Z,70.53
2019-03-25T05:05:45.041Z,70.63
2019-03-25T05:06:16.202Z,70.64
2019-03-25T05:06:47.401Z,70.71
2019-03-25T05:07:18.578Z,70.66
2019-03-25T05:07:49.811Z,70.69
2019-03-25T05:08:21.037Z,70.69
2019-03-25T05:08:52.247Z,70.69
2019-03-25T05:09:23.590Z,70.76
2019-03-25T05:09:54.823Z,70.79
2019-03-25T05:10:26.073Z,70.73
2019-03-25T05:10:57.268Z,70.81
2019-03-25T05:11:30.766Z,70.86
2019-03-25T05:12:01.648Z,70.71
2019-03-25T05:12:32.811Z,70.71
2019-03-25T05:13:03.968Z,70.93
2019-03-25T05:13:35.169Z,70.87
2019-03-25T05:14:06.330Z,71.03
2019-03-25T05:14:37.540Z,71.08
2019-03-25T05:15:08.685Z,71.08
2019-03-25T05:15:39.890Z,71.14
2019-03-25T05:16:11.089Z,71.18
2019-03-25T05:16:42.290Z,71.21
2019-03-25T05:17:13.468Z,71.26
2019-03-25T05:17:44.664Z,71.29
2019-03-25T05:18:15.825Z,71.25
2019-03-25T05:18:47.021Z,71.16
2019-03-25T05:19:18.184Z,71.28
2019-03-25T05:19:50.417Z,71.31
2019-03-25T05:20:21.583Z,71.38
2019-03-25T05:20:52.771Z,71.26
2019-03-25T05:21:23.932Z,71.44
2019-03-25T05:21:55.137Z,71.42
2019-03-25T05:22:26.305Z,71.41
2019-03-25T05:22:57.481Z,71.49
2019-03-25T05:23:28.730Z,71.48
2019-03-25T05:23:59.905Z,71.47
2019-03-25T05:24:31.076Z,71.49
2019-03-25T05:25:04.149Z,71.52
2019-03-25T05:25:35.315Z,71.51
2019-03-25T05:26:06.492Z,71.50
2019-03-25T05:26:37.659Z,71.51
2019-03-25T05:27:08.841Z,71.51
2019-03-25T05:27:39.999Z,71.67
2019-03-25T05:28:11.187Z,71.63
2019-03-25T05:28:42.382Z,71.60
2019-03-25T05:29:13.526Z,71.59
2019-03-25T05:29:44.729Z,71.59
2019-03-25T05:30:15.883Z,71.62
2019-03-25T05:30:47.071Z,71.62
2019-03-25T05:31:18.265Z,71.56
2019-03-25T05:31:49.455Z,71.47
2019-03-25T05:32:20.601Z,71.46
2019-03-25T05:32:51.785Z,71.51
2019-03-25T05:33:22.947Z,71.35
2019-03-25T05:33:54.326Z,71.35
2019-03-25T05:34:25.489Z,71.63
2019-03-25T05:34:56.713Z,71.63
2019-03-25T05:35:27.850Z,71.92
2019-03-25T05:35:59.047Z,71.74
2019-03-25T05:36:30.208Z,71.56
2019-03-25T05:37:01.415Z,71.90
2019-03-25T05:37:32.588Z,72.09
2019-03-25T05:38:03.790Z,72.07
2019-03-25T05:38:34.944Z,72.25
2019-03-25T05:39:07.632Z,72.03
2019-03-25T05:39:39.784Z,72.29
2019-03-25T05:40:10.984Z,71.92
2019-03-25T05:40:42.147Z,71.97
2019-03-25T05:41:13.330Z,72.06
2019-03-25T05:41:44.500Z,72.13
2019-03-25T05:42:15.758Z,72.02
2019-03-25T05:42:46.974Z,71.68
2019-03-25T05:43:18.152Z,71.25
2019-03-25T05:43:50.318Z,71.18
2019-03-25T05:44:21.562Z,71.01
2019-03-25T05:44:52.792Z,71.01
2019-03-25T05:45:24.165Z,70.87
2019-03-25T05:45:55.383Z,70.72
2019-03-25T05:46:26.714Z,70.55
2019-03-25T05:46:57.955Z,71.14
2019-03-25T05:47:29.188Z,70.74
2019-03-25T05:48:00.382Z,70.74
2019-03-25T05:48:31.532Z,70.90
2019-03-25T05:49:02.737Z,70.49
2019-03-25T05:49:33.879Z,70.85
2019-03-25T05:50:05.563Z,70.71
2019-03-25T05:50:36.817Z,70.73
2019-03-25T05:51:08.047Z,70.90
2019-03-25T05:51:39.199Z,70.71
2019-03-25T05:52:10.389Z,70.69
2019-03-25T05:52:41.628Z,70.47
2019-03-25T05:53:12.827Z,70.18
2019-03-25T05:53:43.978Z,70.05
2019-03-25T05:54:15.201Z,69.96
2019-03-25T05:54:46.351Z,69.85
2019-03-25T05:55:17.611Z,69.83
2019-03-25T05:55:48.813Z,69.81
2019-03-25T05:56:21.001Z,69.76
2019-03-25T05:57:02.066Z,69.61
2019-03-25T05:57:25.256Z,69.21
2019-03-25T05:57:56.544Z,69.60
2019-03-25T05:58:27.764Z,69.46
2019-03-25T05:58:59.002Z,69.95
2019-03-25T05:59:31.222Z,69.95
2019-03-25T06:00:02.549Z,69.95
2019-03-25T06:00:35.877Z,69.66
2019-03-25T06:01:07.206Z,69.67
2019-03-25T06:01:38.430Z,69.67
2019-03-25T06:02:09.714Z,69.89
2019-03-25T06:02:40.939Z,69.85
2019-03-25T06:03:12.146Z,69.85
2019-03-25T06:03:43.297Z,69.85
2019-03-25T06:04:14.502Z,69.72
2019-03-25T06:04:45.710Z,69.72
2019-03-25T06:05:16.916Z,69.49
2019-03-25T06:05:48.057Z,69.41
2019-03-25T06:06:19.262Z,69.37
2019-03-25T06:06:52.164Z,69.50
2019-03-25T06:07:23.589Z,69.42
2019-03-25T06:07:54.796Z,69.64
2019-03-25T06:08:25.993Z,69.66
2019-03-25T06:08:57.163Z,69.43
2019-03-25T06:09:28.390Z,69.61
2019-03-25T06:09:59.569Z,69.61
2019-03-25T06:10:30.787Z,69.61
2019-03-25T06:11:01.929Z,69.61
2019-03-25T06:11:33.225Z,69.98
2019-03-25T06:12:04.397Z,69.98
2019-03-25T06:12:35.554Z,69.64
2019-03-25T06:13:06.753Z,69.60
2019-03-25T06:13:37.943Z,69.51
2019-03-25T06:14:09.105Z,69.52
2019-03-25T06:14:40.337Z,69.53
2019-03-25T06:15:11.537Z,69.26
2019-03-25T06:15:42.747Z,69.42
2019-03-25T06:16:13.901Z,69.42
2019-03-25T06:16:45.107Z,69.35
2019-03-25T06:17:16.273Z,69.43
2019-03-25T06:17:47.491Z,69.50
2019-03-25T06:18:20.409Z,69.45
2019-03-25T06:18:51.763Z,69.62
2019-03-25T06:19:22.914Z,69.66
2019-03-25T06:19:54.112Z,69.73
2019-03-25T06:20:25.275Z,69.80
2019-03-25T06:20:56.566Z,69.83
2019-03-25T06:21:27.711Z,69.89
2019-03-25T06:21:58.924Z,69.80
2019-03-25T06:22:30.080Z,69.64
2019-03-25T06:23:01.275Z,69.70
2019-03-25T06:23:32.458Z,69.69
2019-03-25T06:24:03.737Z,69.69
2019-03-25T06:24:34.922Z,69.54
2019-03-25T06:25:06.099Z,69.72
2019-03-25T06:25:37.254Z,69.72
2019-03-25T06:26:08.437Z,69.59
2019-03-25T06:26:39.605Z,69.59
2019-03-25T06:27:14.432Z,69.54
2019-03-25T06:27:43.858Z,69.57
2019-03-25T06:28:15.043Z,69.54
2019-03-25T06:28:47.257Z,69.44
2019-03-25T06:29:18.425Z,69.64
2019-03-25T06:29:49.602Z,69.81
2019-03-25T06:30:20.882Z,69.81
2019-03-25T06:30:52.059Z,70.19
2019-03-25T06:31:23.230Z,70.19
2019-03-25T06:31:54.454Z,69.86
2019-03-25T06:32:25.643Z,69.90
2019-03-25T06:32:56.821Z,69.97
2019-03-25T06:33:28.020Z,70.04
2019-03-25T06:33:59.192Z,70.04
2019-03-25T06:34:30.371Z,70.05
2019-03-25T06:35:01.770Z,70.15
2019-03-25T06:35:33.041Z,70.27
2019-03-25T06:36:04.289Z,70.42
2019-03-25T06:36:35.456Z,70.54
2019-03-25T06:37:06.653Z,70.62
2019-03-25T06:37:37.923Z,70.63
2019-03-25T06:38:09.107Z,70.73
2019-03-25T06:38:40.295Z,70.84
2019-03-25T06:39:11.432Z,70.95
2019-03-25T06:39:42.632Z,71.02
2019-03-25T06:40:13.795Z,71.17
2019-03-25T06:40:44.999Z,70.95
2019-03-25T06:41:16.159Z,71.12
2019-03-25T06:41:47.326Z,71.00
2019-03-25T06:42:18.492Z,71.06
2019-03-25T06:42:49.726Z,71.07
2019-03-25T06:43:20.951Z,70.88